createdAt,value
2019-06-01T11:11:14.847Z,8.48
2019-06-01T11:13:45.606Z,7.12
2019-06-01T11:16:20.175Z,6.15
2019-06-01T11:18:48.600Z,8.83
2019-06-01T11:21:18.633Z,7.47
2019-06-01T11:23:47.059Z,8.83
2019-06-01T11:26:15.464Z,7.40
2019-06-01T11:28:46.373Z,7.37
2019-06-01T11:31:17.317Z,8.45
2019-06-01T11:33:45.712Z,5.57
2019-06-01T11:36:14.139Z,8.48
2019-06-01T11:38:46.028Z,5.30
2019-06-01T11:41:18.303Z,8.40
2019-06-01T11:43:46.130Z,6.70
2019-06-01T11:46:14.642Z,6.15
2019-06-01T11:48:43.521Z,7.35
2019-06-01T11:51:15.417Z,6.85
2019-06-01T11:53:43.821Z,7.00
2019-06-01T11:56:14.437Z,5.33
2019-06-01T11:58:43.402Z,5.12
2019-06-01T12:01:12.901Z,5.05
2019-06-01T12:03:43.972Z,9.10
2019-06-01T12:06:12.446Z,8.73
2019-06-01T12:08:49.070Z,5.22
2019-06-01T12:11:17.487Z,5.28
2019-06-01T12:13:50.060Z,5.47
2019-06-01T12:16:18.498Z,5.45
2019-06-01T12:18:48.276Z,6.33
2019-06-01T12:21:16.703Z,5.35
2019-06-01T12:23:47.698Z,5.03
2019-06-01T12:26:16.254Z,4.60
2019-06-01T12:28:49.583Z,4.80
2019-06-01T12:31:19.071Z,6.65
2019-06-01T12:33:48.813Z,7.83
2019-06-01T12:36:24.684Z,5.72
2019-06-01T12:38:57.865Z,5.72
2019-06-01T12:41:26.361Z,6.15
2019-06-01T12:44:18.801Z,5.08
2019-06-01T12:49:18.575Z,4.33
2019-06-01T12:51:48.970Z,8.35
2019-06-01T12:54:17.543Z,6.28
2019-06-01T12:56:47.827Z,6.72
2019-06-01T12:59:16.098Z,3.58
2019-06-01T13:01:45.154Z,6.42
2019-06-01T13:04:13.656Z,4.85
2019-06-01T13:06:43.165Z,6.42
2019-06-01T13:09:14.306Z,5.00
2019-06-01T13:11:43.242Z,5.17
2019-06-01T13:14:15.125Z,3.10
2019-06-01T13:16:55.923Z,3.60
2019-06-01T13:19:16.326Z,6.30
2019-06-01T13:21:47.564Z,6.37
2019-06-01T13:24:15.928Z,4.80
2019-06-01T13:26:45.623Z,7.45
2019-06-01T13:29:15.274Z,7.30
2019-06-01T13:31:44.407Z,7.28
2019-06-01T13:34:14.113Z,4.15
2019-06-01T13:36:42.594Z,5.95
2019-06-01T13:39:13.686Z,4.92
2019-06-01T13:41:43.102Z,5.90
2019-06-01T13:44:18.205Z,8.70
2019-06-01T13:46:52.071Z,6.10
2019-06-01T13:49:20.453Z,4.20
2019-06-01T13:51:54.552Z,4.90
2019-06-01T13:54:23.225Z,6.00
2019-06-01T13:56:55.436Z,3.08
2019-06-01T13:59:23.871Z,5.42
2019-06-01T14:01:56.299Z,5.72
2019-06-01T14:04:24.732Z,8.43
2019-06-01T14:06:53.231Z,8.70
2019-06-01T14:09:25.439Z,8.60
2019-06-01T14:11:53.845Z,12.37
2019-06-01T14:14:22.252Z,10.05
2019-06-01T14:16:55.804Z,7.65
2019-06-01T14:19:25.329Z,8.48
2019-06-01T14:21:55.973Z,9.88
2019-06-01T14:24:31.460Z,11.05
2019-06-01T14:27:03.756Z,10.63
2019-06-01T14:29:32.177Z,10.00
2019-06-01T14:32:06.917Z,9.40
2019-06-01T14:34:39.323Z,10.85
2019-06-01T14:37:06.795Z,12.33
2019-06-01T14:39:35.188Z,16.07
2019-06-01T14:42:04.175Z,8.93
2019-06-01T14:44:32.589Z,14.28
2019-06-01T14:47:05.427Z,13.87
2019-06-01T14:49:31.140Z,13.80
2019-06-01T14:52:07.486Z,13.63
2019-06-01T14:54:35.915Z,16.95
2019-06-01T14:57:05.664Z,14.45
2019-06-01T14:59:36.673Z,16.27
2019-06-01T15:02:11.392Z,17.53
2019-06-01T15:04:39.804Z,19.77
2019-06-01T15:07:12.030Z,18.90
2019-06-01T15:09:44.924Z,12.55
2019-06-01T15:12:18.873Z,15.63
2019-06-01T15:14:48.543Z,16.23
2019-06-01T15:17:24.574Z,16.95
2019-06-01T15:19:54.184Z,13.32
2019-06-01T15:22:22.580Z,18.32
2019-06-01T15:24:56.468Z,14.73
2019-06-01T15:27:24.875Z,17.82
2019-06-01T15:29:53.310Z,12.63
2019-06-01T15:32:21.912Z,15.38
2019-06-01T15:34:50.430Z,13.10
2019-06-01T15:37:19.043Z,15.98
2019-06-01T15:39:47.451Z,12.55
2019-06-01T15:42:17.861Z,12.50
2019-06-01T15:44:47.318Z,15.78
2019-06-01T15:47:18.000Z,9.85
2019-06-01T15:49:47.482Z,17.67
2019-06-01T15:52:16.961Z,13.03
2019-06-01T15:54:47.513Z,13.58
2019-06-01T15:57:15.955Z,14.78
2019-06-01T15:59:47.095Z,13.70
2019-06-01T16:02:19.348Z,12.27
2019-06-01T16:04:47.793Z,11.30
2019-06-01T16:07:20.026Z,13.32
2019-06-01T16:12:17.001Z,9.10
2019-06-01T16:14:45.420Z,13.70
2019-06-01T16:17:19.047Z,10.53
2019-06-01T16:19:49.801Z,13.93
2019-06-01T16:22:18.206Z,13.75
2019-06-01T16:24:47.684Z,11.18
2019-06-01T16:27:19.578Z,14.20
2019-06-01T16:29:56.847Z,9.78
2019-06-01T16:32:26.321Z,12.40
2019-06-01T16:35:01.302Z,11.78
2019-06-01T16:37:44.409Z,10.38
2019-06-01T16:40:13.632Z,10.23
2019-06-01T16:42:42.104Z,7.85
2019-06-01T16:45:15.072Z,7.22
2019-06-01T16:47:43.801Z,8.98
2019-06-01T16:50:12.707Z,11.05
2019-06-01T16:52:43.325Z,10.25
2019-06-01T16:55:12.599Z,8.70
2019-06-01T16:57:41.101Z,10.05
2019-06-01T17:00:15.045Z,8.73
2019-06-01T17:02:45.450Z,10.47
2019-06-01T17:05:18.429Z,7.37
2019-06-01T17:07:52.026Z,12.03
2019-06-01T17:10:26.053Z,10.35
2019-06-01T17:12:50.950Z,9.93
2019-06-01T17:15:22.438Z,8.18
2019-06-01T17:17:56.878Z,9.45
2019-06-01T17:20:48.729Z,8.88
2019-06-01T17:23:27.941Z,10.25
2019-06-01T17:25:48.406Z,10.55
2019-06-01T17:28:19.245Z,10.30
2019-06-01T17:30:47.015Z,7.15
2019-06-01T17:33:15.412Z,8.13
2019-06-01T17:35:43.835Z,8.63
2019-06-01T17:38:19.509Z,8.78
2019-06-01T17:40:46.057Z,9.05
2019-06-01T17:43:19.485Z,9.50
2019-06-01T17:45:52.619Z,7.87
2019-06-01T17:48:27.787Z,8.18
2019-06-01T17:50:58.728Z,7.05
2019-06-01T17:53:27.164Z,7.17
2019-06-01T17:55:55.575Z,5.72
2019-06-01T17:58:29.142Z,6.90
2019-06-01T18:00:57.553Z,5.85
2019-06-01T18:03:25.951Z,5.53
2019-06-01T18:05:57.229Z,9.35
2019-06-01T18:08:28.272Z,10.40
2019-06-01T18:10:56.793Z,5.55
2019-06-01T18:13:29.243Z,5.65
2019-06-01T18:16:00.404Z,8.18
2019-06-01T18:18:32.453Z,5.60
2019-06-01T18:21:04.174Z,5.47
2019-06-01T18:23:34.867Z,6.53
2019-06-01T18:26:07.095Z,5.53
2019-06-01T18:28:39.105Z,5.53
2019-06-01T18:31:10.729Z,5.72
2019-06-01T18:33:53.459Z,5.05
2019-06-01T18:36:21.402Z,5.47
2019-06-01T18:39:03.359Z,4.70
2019-06-01T18:41:38.299Z,7.12
2019-06-01T18:44:09.719Z,4.97
2019-06-01T18:46:40.792Z,4.27
2019-06-01T18:49:10.246Z,8.28
2019-06-01T18:51:45.294Z,4.72
2019-06-01T18:54:15.049Z,4.10
2019-06-01T18:56:43.723Z,4.83
2019-06-01T18:59:14.596Z,3.22
2019-06-01T19:01:43.961Z,7.47
2019-06-01T19:04:23.751Z,3.98
2019-06-01T19:07:07.152Z,4.70
2019-06-01T19:12:43.152Z,4.90
2019-06-01T19:15:27.544Z,4.15
2019-06-01T19:17:53.116Z,2.87
2019-06-01T19:20:24.343Z,3.50
2019-06-01T19:22:55.269Z,2.90
2019-06-01T19:25:39.774Z,4.95
2019-06-01T19:28:17.526Z,4.12
2019-06-01T19:30:54.363Z,3.80
2019-06-01T19:33:40.616Z,6.60
2019-06-01T19:36:09.463Z,6.35
2019-06-01T19:38:42.688Z,6.47
2019-06-01T19:41:11.361Z,7.58
2019-06-01T19:43:39.793Z,6.92
2019-06-01T19:46:11.719Z,4.67
2019-06-01T19:48:42.072Z,6.12
2019-06-01T19:51:10.724Z,3.45
2019-06-01T19:53:43.257Z,4.08
2019-06-01T19:56:12.824Z,3.92
2019-06-01T19:59:05.379Z,4.42
2019-06-01T20:01:40.017Z,6.65
2019-06-01T20:04:10.592Z,3.98
2019-06-01T20:06:51.821Z,6.00
2019-06-01T20:09:28.471Z,6.42
2019-06-01T20:12:01.791Z,5.00
2019-06-01T20:14:32.224Z,5.45
2019-06-01T20:17:05.866Z,5.47
2019-06-01T20:19:40.327Z,5.05
2019-06-01T20:22:08.769Z,5.12
2019-06-01T20:24:38.284Z,5.53
2019-06-01T20:27:06.927Z,5.23
2019-06-01T20:29:35.319Z,4.30
2019-06-01T20:32:05.061Z,5.90
2019-06-01T20:34:33.480Z,7.05
2019-06-01T20:37:04.253Z,7.57
2019-06-01T20:39:39.430Z,4.97
2019-06-01T20:42:38.121Z,6.27
2019-06-01T20:44:51.411Z,5.45
2019-06-01T20:47:24.423Z,4.45
2019-06-01T20:49:57.854Z,4.72
2019-06-01T20:52:33.362Z,8.43
2019-06-01T20:55:06.348Z,6.42
2019-06-01T20:57:38.452Z,7.03
2019-06-01T21:00:10.885Z,5.17
2019-06-01T21:02:39.291Z,4.87
2019-06-01T21:05:13.840Z,6.58
2019-06-01T21:08:10.525Z,6.08
2019-06-01T21:10:37.677Z,7.47
2019-06-01T21:13:08.185Z,4.75
2019-06-01T21:15:48.696Z,6.28
2019-06-01T21:18:22.815Z,6.90
2019-06-01T21:20:51.264Z,8.18
2019-06-01T21:23:20.716Z,6.37
2019-06-01T21:25:58.462Z,6.75
2019-06-01T21:28:27.053Z,5.35
2019-06-01T21:31:02.425Z,8.23
2019-06-01T21:33:37.852Z,9.98
2019-06-01T21:36:06.444Z,13.10
2019-06-01T21:38:48.493Z,12.03
2019-06-01T21:41:21.558Z,12.07
2019-06-01T21:43:48.522Z,9.88
2019-06-01T21:46:38.424Z,11.00
2019-06-01T21:51:59.141Z,10.57
2019-06-01T21:54:37.053Z,10.98
2019-06-01T21:57:10.510Z,10.55
2019-06-01T21:59:39.427Z,9.60
2019-06-01T22:02:16.868Z,10.20
2019-06-01T22:05:03.388Z,10.65
2019-06-01T22:07:43.394Z,7.85
2019-06-01T22:10:15.384Z,11.00
2019-06-01T22:12:51.516Z,12.47
2019-06-01T22:15:25.843Z,15.85
2019-06-01T22:18:01.011Z,16.42
2019-06-01T22:20:32.319Z,14.93
2019-06-01T22:23:11.887Z,8.53
2019-06-01T22:25:44.572Z,10.98
2019-06-01T22:28:18.501Z,14.25
2019-06-01T22:30:45.888Z,17.37
2019-06-01T22:33:21.807Z,15.32
2019-06-01T22:35:53.419Z,16.20
2019-06-01T22:38:30.193Z,16.40
2019-06-01T22:41:03.034Z,15.23
2019-06-01T22:43:45.434Z,15.10
2019-06-01T22:46:13.284Z,13.28
2019-06-01T22:48:43.758Z,14.23
2019-06-01T22:51:13.356Z,10.82
2019-06-01T22:53:56.250Z,8.83
2019-06-01T22:56:31.984Z,11.22
2019-06-01T22:59:02.902Z,13.72
2019-06-01T23:01:35.977Z,11.05
2019-06-01T23:04:27.423Z,10.25
2019-06-01T23:06:59.924Z,7.03
2019-06-01T23:09:41.542Z,8.23
2019-06-01T23:12:13.708Z,13.43
2019-06-01T23:14:45.850Z,12.25
2019-06-01T23:20:13.235Z,9.48
2019-06-01T23:22:55.418Z,7.45
2019-06-01T23:25:24.480Z,10.35
2019-06-01T23:27:52.998Z,8.95
2019-06-01T23:30:32.643Z,9.83
2019-06-01T23:33:09.827Z,8.03
2019-06-01T23:35:39.211Z,11.85
2019-06-01T23:38:15.091Z,9.13
2019-06-01T23:40:44.497Z,14.07
2019-06-01T23:43:15.359Z,10.45
2019-06-01T23:45:43.092Z,10.70
2019-06-01T23:48:11.645Z,9.75
2019-06-01T23:50:44.333Z,8.80
2019-06-01T23:53:14.024Z,10.60
2019-06-01T23:55:47.082Z,9.03
2019-06-01T23:58:15.518Z,10.90
